Main page
METAR-TAF:

METAR-TAF

Airports :

Dallas/Fort Worth International Airport

Dallas / Fort Worth, Texas, United States

latitude: 32-53-49N, longitude: 097-01-19W, elevation: 183 m

Current weather observation

The report was made 38 minutes ago, at 10:53 UTC
Wind 14 kt from the South/Southwest
Temperature 26°C
Humidity 79%
Pressure 1013 hPa
Visibility: 16.1 km
Broken clouds at a height of 30000 ft

METAR: KDFW 151053Z 20014KT 10SM BKN300 26/22 A2991 RMK AO2 SLP119 T02560217

Time: 06:31 (11:31 UTC)

Forecast

The report was made 2 hours and 19 minutes ago, at 09:12 UTC
Forecast valid from 15 at 09 UTC to 16 at 12 UTC
Wind 12 kt from the South
Visibility: 10 km
Scattered clouds at a height of 10000 ft
Broken clouds at a height of 30000 ft

TAF: KDFW 150912Z 1509/1612 17012KT P6SM SCT100 BKN300

Weather observations and forecasts of more than 4000 airports (METAR and TAF reports).

The available stations are represented by yellow and red dots on the map.

Hover mouse over dot to see the name of the station.

Then click to see weather observations and forecasts.

To change the map : click on the green buttons with a black cross to zoom in, on the green button with a dash to zoom out, or on the green arrows for adjacent maps.


METAR-TAF: